createdAt,value
2019-02-03T00:02:16.561Z,1.06
2019-02-03T00:04:47.066Z,1.07
2019-02-03T00:07:17.683Z,1.07
2019-02-03T00:09:48.131Z,1.02
2019-02-03T00:12:18.617Z,1.09
2019-02-03T00:14:49.059Z,1.01
2019-02-03T00:17:19.699Z,0.99
2019-02-03T00:19:50.143Z,0.97
2019-02-03T00:22:20.599Z,0.95
2019-02-03T00:24:51.071Z,0.98
2019-02-03T00:27:21.527Z,0.97
2019-02-03T00:29:52.978Z,0.95
2019-02-03T00:32:23.423Z,0.98
2019-02-03T00:34:54.195Z,0.97
2019-02-03T00:37:24.676Z,0.93
2019-02-03T00:39:55.170Z,0.98
2019-02-03T00:42:25.689Z,1.04
2019-02-03T00:44:56.239Z,1.00
2019-02-03T00:47:26.688Z,0.94
2019-02-03T00:49:57.441Z,0.90
2019-02-03T00:52:27.892Z,0.89
2019-02-03T00:54:58.390Z,0.87
2019-02-03T00:57:28.843Z,0.91
2019-02-03T00:59:59.623Z,0.92
2019-02-03T01:02:30.399Z,0.94
2019-02-03T01:05:01.115Z,0.86
2019-02-03T01:07:31.610Z,0.85
2019-02-03T01:10:02.060Z,0.76
2019-02-03T01:12:33.531Z,0.77
2019-02-03T01:15:04.910Z,0.74
2019-02-03T01:17:35.354Z,0.72
2019-02-03T01:20:08.006Z,0.71
2019-02-03T01:22:38.525Z,0.76
2019-02-03T01:25:10.891Z,0.80
2019-02-03T01:27:41.443Z,0.70
2019-02-03T01:30:15.155Z,0.74
2019-02-03T01:32:45.643Z,0.75
2019-02-03T01:35:16.481Z,0.71
2019-02-03T01:37:47.135Z,0.66
2019-02-03T01:40:18.484Z,0.64
2019-02-03T01:42:49.699Z,0.64
2019-02-03T01:45:21.057Z,0.64
2019-02-03T01:47:51.509Z,0.66
2019-02-03T01:50:21.952Z,0.72
2019-02-03T01:52:52.769Z,0.68
2019-02-03T01:55:24.725Z,0.69
2019-02-03T01:57:55.595Z,0.69
2019-02-03T02:00:27.982Z,0.74
2019-02-03T02:02:59.008Z,0.70
2019-02-03T02:05:29.486Z,0.71
2019-02-03T02:07:59.934Z,0.76
2019-02-03T02:10:30.546Z,0.82
2019-02-03T02:13:01.014Z,0.83
2019-02-03T02:15:32.263Z,0.85
2019-02-03T02:18:02.735Z,0.81
2019-02-03T02:20:33.183Z,0.76
2019-02-03T02:23:03.749Z,0.72
2019-02-03T02:25:35.162Z,0.76
2019-02-03T02:28:06.264Z,0.66
2019-02-03T02:30:36.755Z,0.65
2019-02-03T02:33:07.193Z,0.69
2019-02-03T02:35:37.687Z,0.63
2019-02-03T02:38:08.477Z,0.71
2019-02-03T02:40:39.327Z,0.72
2019-02-03T02:43:10.076Z,0.71
2019-02-03T02:45:40.832Z,0.73
2019-02-03T02:48:11.486Z,0.78
2019-02-03T02:50:43.962Z,0.75
2019-02-03T02:53:14.781Z,0.74
2019-02-03T02:55:45.625Z,0.70
2019-02-03T02:58:16.363Z,0.71
2019-02-03T03:00:46.880Z,0.77
2019-02-03T03:03:17.328Z,0.69
2019-02-03T03:05:48.534Z,0.70
2019-02-03T03:08:19.883Z,0.70
2019-02-03T03:10:50.435Z,0.64
2019-02-03T03:13:20.911Z,0.76
2019-02-03T03:15:51.354Z,0.68
2019-02-03T03:18:22.567Z,0.68
2019-02-03T03:20:53.909Z,0.61
2019-02-03T03:23:24.363Z,0.62
2019-02-03T03:25:55.775Z,0.53
2019-02-03T03:28:26.228Z,0.60
2019-02-03T03:30:56.908Z,0.62
2019-02-03T03:33:27.362Z,0.64
2019-02-03T03:35:57.807Z,0.65
2019-02-03T03:38:32.314Z,0.63
2019-02-03T03:41:00.892Z,0.62
2019-02-03T03:43:32.316Z,0.72
2019-02-03T03:46:06.332Z,0.67
2019-02-03T03:48:35.510Z,0.66
2019-02-03T03:51:06.575Z,0.62
2019-02-03T03:53:37.019Z,0.59
2019-02-03T03:56:08.283Z,0.62
2019-02-03T03:58:38.730Z,0.62
2019-02-03T04:01:09.337Z,0.63
2019-02-03T04:03:39.854Z,0.70
2019-02-03T04:06:10.306Z,0.62
2019-02-03T04:08:45.326Z,0.53
2019-02-03T04:11:13.442Z,0.59
2019-02-03T04:13:43.884Z,0.62
2019-02-03T04:16:15.429Z,0.53
2019-02-03T04:18:45.869Z,0.62
2019-02-03T04:21:16.364Z,0.60
2019-02-03T04:23:47.082Z,0.59
2019-02-03T04:26:18.453Z,0.61
2019-02-03T04:28:48.927Z,0.59
2019-02-03T04:31:19.372Z,0.55
2019-02-03T04:33:49.859Z,0.65
2019-02-03T04:36:20.460Z,0.62
2019-02-03T04:38:58.413Z,0.58
2019-02-03T04:41:23.390Z,0.63
2019-02-03T04:43:53.930Z,0.60
2019-02-03T04:46:24.735Z,0.63
2019-02-03T04:48:55.242Z,0.64
2019-02-03T04:51:25.690Z,0.73
2019-02-03T04:53:56.562Z,0.68
2019-02-03T04:56:27.000Z,0.72
2019-02-03T04:58:57.875Z,0.75
2019-02-03T05:01:29.023Z,0.79
2019-02-03T05:03:59.611Z,0.70
2019-02-03T05:06:30.128Z,0.65
2019-02-03T05:09:10.794Z,0.63
2019-02-03T05:11:33.928Z,0.66
2019-02-03T05:14:04.575Z,0.59
2019-02-03T05:16:35.038Z,0.67
2019-02-03T05:19:06.305Z,0.56
2019-02-03T05:21:37.478Z,0.55
2019-02-03T05:24:07.954Z,0.56
2019-02-03T05:26:38.389Z,0.61
2019-02-03T05:29:08.954Z,0.61
2019-02-03T05:31:39.864Z,0.61
2019-02-03T05:34:11.110Z,0.73
2019-02-03T05:36:41.578Z,0.69
2019-02-03T05:39:23.872Z,0.69
2019-02-03T05:41:44.217Z,0.63
2019-02-03T05:44:14.662Z,0.64
2019-02-03T05:46:45.483Z,0.70
2019-02-03T05:49:16.322Z,0.74
2019-02-03T05:51:46.766Z,0.70
2019-02-03T05:54:17.559Z,0.64
2019-02-03T05:56:47.998Z,0.58
2019-02-03T05:59:18.626Z,0.53
2019-02-03T06:01:49.328Z,0.49
2019-02-03T06:04:20.162Z,0.46
2019-02-03T06:06:50.751Z,0.46
2019-02-03T06:09:21.185Z,0.45
2019-02-03T06:11:52.366Z,0.43
2019-02-03T06:14:22.834Z,0.39
2019-02-03T06:16:53.633Z,0.39
2019-02-03T06:19:24.132Z,0.37
2019-02-03T06:21:54.567Z,0.35
2019-02-03T06:24:25.958Z,0.30
2019-02-03T06:26:56.439Z,0.20
2019-02-03T06:29:26.874Z,0.24
2019-02-03T06:31:57.341Z,0.28
2019-02-03T06:34:28.106Z,0.30
2019-02-03T06:36:59.147Z,0.38
2019-02-03T06:39:29.957Z,0.38
2019-02-03T06:42:00.845Z,0.38
2019-02-03T06:44:31.290Z,0.44
2019-02-03T06:47:07.030Z,0.41
2019-02-03T06:49:39.478Z,0.38
2019-02-03T06:52:09.897Z,0.39
2019-02-03T06:54:40.366Z,0.43
2019-02-03T06:57:11.159Z,0.44
2019-02-03T06:59:50.378Z,0.45
2019-02-03T07:02:14.655Z,0.47
2019-02-03T07:04:45.822Z,0.44
2019-02-03T07:07:16.291Z,0.51
2019-02-03T07:09:47.120Z,0.45
2019-02-03T07:12:17.604Z,0.42
2019-02-03T07:14:48.318Z,0.45
2019-02-03T07:17:19.132Z,0.43
2019-02-03T07:19:50.037Z,0.42
2019-02-03T07:22:20.473Z,0.44
2019-02-03T07:24:50.970Z,0.51
2019-02-03T07:27:21.414Z,0.43
2019-02-03T07:29:52.166Z,0.47
2019-02-03T07:32:22.629Z,0.49
2019-02-03T07:34:53.121Z,0.49
2019-02-03T07:37:24.004Z,0.45
2019-02-03T07:39:54.428Z,0.44
2019-02-03T07:42:25.166Z,0.34
2019-02-03T07:44:55.742Z,0.37
2019-02-03T07:47:26.914Z,0.36
2019-02-03T07:49:57.404Z,0.31
2019-02-03T07:52:28.182Z,0.24
2019-02-03T07:54:58.624Z,0.26
2019-02-03T07:57:29.094Z,0.27
2019-02-03T07:59:59.882Z,0.32
2019-02-03T08:02:30.660Z,0.31
2019-02-03T08:05:01.124Z,0.36
2019-02-03T08:07:31.851Z,0.33
2019-02-03T08:10:02.687Z,0.42
2019-02-03T08:12:33.999Z,0.39
2019-02-03T08:15:06.503Z,0.44
2019-02-03T08:17:36.942Z,0.41
2019-02-03T08:20:10.372Z,0.41
2019-02-03T08:22:40.836Z,0.37
2019-02-03T08:25:12.948Z,0.38
2019-02-03T08:27:43.443Z,0.39
2019-02-03T08:30:16.702Z,0.43
2019-02-03T08:32:47.138Z,0.46
2019-02-03T08:35:19.890Z,0.45
2019-02-03T08:37:50.142Z,0.46
2019-02-03T08:40:21.173Z,0.52
2019-02-03T08:42:51.976Z,0.53
2019-02-03T08:45:22.660Z,0.52
2019-02-03T08:47:53.103Z,0.57
2019-02-03T08:50:23.646Z,0.51
2019-02-03T08:52:54.232Z,0.57
2019-02-03T08:55:24.671Z,0.62
2019-02-03T08:57:57.717Z,0.66
2019-02-03T09:00:28.753Z,0.67
2019-02-03T09:02:59.288Z,0.74
2019-02-03T09:05:30.555Z,0.79
2019-02-03T09:08:01.020Z,0.76
2019-02-03T09:10:31.461Z,0.78
2019-02-03T09:13:01.951Z,0.81
2019-02-03T09:15:32.397Z,0.89
2019-02-03T09:18:03.569Z,0.90
2019-02-03T09:20:34.628Z,0.91
2019-02-03T09:23:06.765Z,0.90
2019-02-03T09:25:37.565Z,0.92
2019-02-03T09:28:08.881Z,0.88
2019-02-03T09:30:40.223Z,0.97
2019-02-03T09:33:11.691Z,0.98
2019-02-03T09:35:42.141Z,1.06
2019-02-03T09:38:13.698Z,1.04
2019-02-03T09:40:44.154Z,1.03
2019-02-03T09:43:15.007Z,1.11
2019-02-03T09:45:45.461Z,1.24
2019-02-03T09:48:16.300Z,1.14
2019-02-03T09:50:46.790Z,1.21
2019-02-03T09:53:17.234Z,1.26
2019-02-03T09:55:48.046Z,1.25
2019-02-03T09:58:18.516Z,1.39
2019-02-03T10:00:48.960Z,1.48
2019-02-03T10:03:19.442Z,1.55
2019-02-03T10:05:49.880Z,1.59
2019-02-03T10:08:20.821Z,1.55
2019-02-03T10:10:51.370Z,1.54
2019-02-03T10:13:21.821Z,1.66
2019-02-03T10:15:52.763Z,1.76
2019-02-03T10:18:23.636Z,1.80
2019-02-03T10:20:54.139Z,1.83
2019-02-03T10:23:24.588Z,1.84
2019-02-03T10:25:55.533Z,1.91
2019-02-03T10:28:26.090Z,2.00
2019-02-03T10:30:56.646Z,2.05
2019-02-03T10:33:27.494Z,2.05
2019-02-03T10:35:58.325Z,2.04
2019-02-03T10:38:29.540Z,2.00
2019-02-03T10:41:00.335Z,2.03
2019-02-03T10:43:30.789Z,2.22
2019-02-03T10:46:01.238Z,2.20
2019-02-03T10:48:32.222Z,2.29
2019-02-03T10:51:03.146Z,2.30
2019-02-03T10:53:33.571Z,2.21
2019-02-03T10:56:05.263Z,2.33
2019-02-03T10:58:36.104Z,2.38
2019-02-03T11:01:06.925Z,2.36
2019-02-03T11:03:37.442Z,2.29
2019-02-03T11:06:08.934Z,2.31
2019-02-03T11:08:39.565Z,2.37
2019-02-03T11:11:10.058Z,2.43
2019-02-03T11:13:41.177Z,2.35
2019-02-03T11:16:11.645Z,2.40
2019-02-03T11:18:42.918Z,2.45
2019-02-03T11:21:13.364Z,2.54
2019-02-03T11:23:43.816Z,2.54
2019-02-03T11:26:14.399Z,2.56
2019-02-03T11:28:44.934Z,2.60
2019-02-03T11:31:15.386Z,2.61
2019-02-03T11:33:45.890Z,2.70
2019-02-03T11:36:16.360Z,2.71
2019-02-03T11:38:47.165Z,2.77
2019-02-03T11:41:17.663Z,2.79
2019-02-03T11:43:48.102Z,2.79
2019-02-03T11:46:18.543Z,2.82
2019-02-03T11:48:49.053Z,2.87
2019-02-03T11:51:19.493Z,2.90
2019-02-03T11:53:49.951Z,2.77
2019-02-03T11:56:21.014Z,2.85
2019-02-03T11:58:51.462Z,2.87
2019-02-03T12:01:22.309Z,2.84
2019-02-03T12:03:52.798Z,2.94
2019-02-03T12:06:23.249Z,2.94
2019-02-03T12:08:53.690Z,2.95
2019-02-03T12:11:24.182Z,2.97
2019-02-03T12:13:55.141Z,2.98
2019-02-03T12:16:25.962Z,3.00
2019-02-03T12:18:57.363Z,2.81
2019-02-03T12:21:30.029Z,2.78
2019-02-03T12:24:00.341Z,2.80
2019-02-03T12:26:31.265Z,2.75
2019-02-03T12:29:01.709Z,2.78
2019-02-03T12:31:32.705Z,2.78
2019-02-03T12:34:03.197Z,2.85
2019-02-03T12:36:34.649Z,2.81
2019-02-03T12:39:08.494Z,2.82
2019-02-03T12:41:39.848Z,2.81
2019-02-03T12:44:10.456Z,2.86
2019-02-03T12:46:41.370Z,2.88
2019-02-03T12:49:12.214Z,2.88
2019-02-03T12:51:43.535Z,2.91
2019-02-03T12:54:14.450Z,2.94
2019-02-03T12:56:44.898Z,2.94
2019-02-03T12:59:15.345Z,2.99
2019-02-03T13:01:46.222Z,3.08
2019-02-03T13:04:16.708Z,3.13
2019-02-03T13:06:47.161Z,3.25
2019-02-03T13:09:19.966Z,3.20
2019-02-03T13:11:50.452Z,3.26
2019-02-03T13:14:21.318Z,3.36
2019-02-03T13:16:51.822Z,3.39
2019-02-03T13:19:23.584Z,3.38
2019-02-03T13:21:54.808Z,3.46
2019-02-03T13:24:25.317Z,3.48
2019-02-03T13:26:56.163Z,3.53
2019-02-03T13:29:26.891Z,3.62
2019-02-03T13:32:10.165Z,3.72
2019-02-03T13:34:30.439Z,3.78
2019-02-03T13:37:01.358Z,3.86
2019-02-03T13:39:31.877Z,3.94
2019-02-03T13:42:02.329Z,3.97
2019-02-03T13:44:33.539Z,3.95
2019-02-03T13:47:04.338Z,3.77
2019-02-03T13:49:35.129Z,3.57
2019-02-03T13:52:06.159Z,3.43
2019-02-03T13:54:37.139Z,3.46
2019-02-03T13:57:07.612Z,3.25
2019-02-03T13:59:38.074Z,3.25
2019-02-03T14:02:09.381Z,3.24
2019-02-03T14:04:39.842Z,3.21
2019-02-03T14:07:12.474Z,3.19
2019-02-03T14:09:42.960Z,3.19
2019-02-03T14:12:13.459Z,3.19
2019-02-03T14:14:43.918Z,3.12
2019-02-03T14:17:14.422Z,3.19
2019-02-03T14:19:44.878Z,3.19
2019-02-03T14:22:16.405Z,3.26
2019-02-03T14:24:49.647Z,3.34
2019-02-03T14:27:20.118Z,3.41
2019-02-03T14:29:50.588Z,3.43
2019-02-03T14:32:21.478Z,3.44
2019-02-03T14:34:51.928Z,3.48
2019-02-03T14:37:22.689Z,3.62
2019-02-03T14:39:53.201Z,3.58
2019-02-03T14:42:24.372Z,3.48
2019-02-03T14:44:55.924Z,3.56
2019-02-03T14:47:26.865Z,3.60
2019-02-03T14:49:58.016Z,3.79
2019-02-03T14:52:28.634Z,4.07
2019-02-03T14:54:59.505Z,4.07
2019-02-03T14:57:30.628Z,3.89
2019-02-03T15:00:01.086Z,3.75
2019-02-03T15:02:31.607Z,3.58
2019-02-03T15:05:02.044Z,3.57
2019-02-03T15:07:37.660Z,3.42
2019-02-03T15:10:05.902Z,3.32
2019-02-03T15:12:36.350Z,3.12
2019-02-03T15:15:09.262Z,3.20
2019-02-03T15:17:40.206Z,3.22
2019-02-03T15:20:13.308Z,3.12
2019-02-03T15:22:43.765Z,3.06
2019-02-03T15:25:15.237Z,3.12
2019-02-03T15:27:46.026Z,3.13
2019-02-03T15:30:22.665Z,3.09
2019-02-03T15:32:53.117Z,3.06
2019-02-03T15:35:24.007Z,3.09
2019-02-03T15:37:54.493Z,3.06
2019-02-03T15:40:24.959Z,3.00
2019-02-03T15:42:55.537Z,3.04
2019-02-03T15:45:26.211Z,2.99
2019-02-03T15:47:56.688Z,2.90
2019-02-03T15:50:28.856Z,2.91
2019-02-03T15:52:59.780Z,2.94
2019-02-03T15:55:31.580Z,2.93
2019-02-03T15:58:02.536Z,2.89
2019-02-03T16:00:35.376Z,2.90
2019-02-03T16:03:08.700Z,2.87
2019-02-03T16:05:39.977Z,2.90
2019-02-03T16:08:11.469Z,2.90
2019-02-03T16:10:42.978Z,2.88
2019-02-03T16:13:15.220Z,2.83
2019-02-03T16:15:46.175Z,2.86
2019-02-03T16:18:17.527Z,2.79
2019-02-03T16:20:48.150Z,2.79
2019-02-03T16:23:19.415Z,2.72
2019-02-03T16:25:49.865Z,2.69
2019-02-03T16:28:20.308Z,2.69
2019-02-03T16:30:51.577Z,2.70
2019-02-03T16:33:22.217Z,2.68
2019-02-03T16:35:52.659Z,2.69
2019-02-03T16:38:24.111Z,2.63
2019-02-03T16:40:55.605Z,2.71
2019-02-03T16:43:26.448Z,2.76
2019-02-03T16:45:59.271Z,2.73
2019-02-03T16:48:30.389Z,2.68
2019-02-03T16:51:00.854Z,2.66
2019-02-03T16:53:32.051Z,2.71
2019-02-03T16:56:02.998Z,2.72
2019-02-03T16:58:33.755Z,2.61
2019-02-03T17:01:05.159Z,2.60
2019-02-03T17:03:35.659Z,2.54
2019-02-03T17:06:06.449Z,2.60
2019-02-03T17:08:37.473Z,2.48
2019-02-03T17:11:08.737Z,2.53
2019-02-03T17:13:39.161Z,2.52
2019-02-03T17:16:10.013Z,2.45
2019-02-03T17:18:40.470Z,2.47
2019-02-03T17:21:11.589Z,2.42
2019-02-03T17:23:43.244Z,2.45
2019-02-03T17:26:13.994Z,2.49
2019-02-03T17:28:44.448Z,2.47
2019-02-03T17:31:14.945Z,2.43
2019-02-03T17:33:46.655Z,2.37
2019-02-03T17:36:17.700Z,2.36
2019-02-03T17:38:48.589Z,2.35
2019-02-03T17:41:19.042Z,2.31
2019-02-03T17:43:49.647Z,2.32
2019-02-03T17:46:20.135Z,2.27
2019-02-03T17:48:50.999Z,2.28
2019-02-03T17:51:23.541Z,2.18
2019-02-03T17:53:54.402Z,2.13
2019-02-03T17:56:25.169Z,2.13
2019-02-03T17:58:57.238Z,2.04
2019-02-03T18:01:27.812Z,2.01
2019-02-03T18:03:58.248Z,2.05
2019-02-03T18:06:28.699Z,2.02
2019-02-03T18:08:59.254Z,1.92
2019-02-03T18:11:29.818Z,1.86
2019-02-03T18:14:00.545Z,1.89
2019-02-03T18:16:31.025Z,1.86
2019-02-03T18:19:02.260Z,1.85
2019-02-03T18:21:32.792Z,1.80
2019-02-03T18:24:03.619Z,1.78
2019-02-03T18:26:37.542Z,1.76
2019-02-03T18:29:08.338Z,1.73
2019-02-03T18:31:39.896Z,1.71
2019-02-03T18:34:10.949Z,1.64
2019-02-03T18:36:41.394Z,1.67
2019-02-03T18:39:11.949Z,1.72
2019-02-03T18:41:42.741Z,1.76
2019-02-03T18:44:13.313Z,1.73
2019-02-03T18:46:43.841Z,1.70
2019-02-03T18:49:14.303Z,1.67
2019-02-03T18:51:45.121Z,1.64
2019-02-03T18:54:15.983Z,1.64
2019-02-03T18:56:47.122Z,1.58
2019-02-03T18:59:17.585Z,1.52
2019-02-03T19:01:48.105Z,1.56
2019-02-03T19:04:18.823Z,1.51
2019-02-03T19:06:49.629Z,1.47
2019-02-03T19:09:20.145Z,1.56
2019-02-03T19:11:51.030Z,1.56
2019-02-03T19:14:22.976Z,1.49
2019-02-03T19:16:54.466Z,1.55
2019-02-03T19:19:25.186Z,1.50
2019-02-03T19:21:55.633Z,1.41
2019-02-03T19:24:26.492Z,1.40
2019-02-03T19:26:57.640Z,1.39
2019-02-03T19:29:28.449Z,1.39
2019-02-03T19:31:58.958Z,1.44
2019-02-03T19:34:29.746Z,1.40
2019-02-03T19:37:05.554Z,1.34
2019-02-03T19:39:32.736Z,1.35
2019-02-03T19:42:03.472Z,1.36
2019-02-03T19:44:34.329Z,1.26
2019-02-03T19:47:05.417Z,1.25
2019-02-03T19:49:45.993Z,1.20
2019-02-03T19:52:08.587Z,1.26
2019-02-03T19:54:40.042Z,1.22
2019-02-03T19:57:10.634Z,1.27
2019-02-03T19:59:46.848Z,1.24
2019-02-03T20:02:13.317Z,1.27
2019-02-03T20:04:50.932Z,1.25
2019-02-03T20:07:21.744Z,1.19
2019-02-03T20:09:52.565Z,1.23
2019-02-03T20:12:24.260Z,1.24
2019-02-03T20:14:54.914Z,1.16
2019-02-03T20:17:25.861Z,1.13
2019-02-03T20:19:56.726Z,1.15
2019-02-03T20:22:27.968Z,1.13
2019-02-03T20:24:58.453Z,1.11
2019-02-03T20:27:28.956Z,1.15
2019-02-03T20:29:59.422Z,1.19
2019-02-03T20:32:29.933Z,1.20
2019-02-03T20:35:00.971Z,1.19
2019-02-03T20:37:31.915Z,1.16
2019-02-03T20:40:02.982Z,1.07
2019-02-03T20:42:33.550Z,1.03
2019-02-03T20:45:04.947Z,1.01
2019-02-03T20:47:38.092Z,0.94
2019-02-03T20:50:11.326Z,0.92
2019-02-03T20:52:42.164Z,0.83
2019-02-03T20:55:13.351Z,0.81
2019-02-03T20:57:44.292Z,0.80
2019-02-03T21:00:20.453Z,0.78
2019-02-03T21:02:51.203Z,0.80
2019-02-03T21:05:21.742Z,0.83
2019-02-03T21:07:52.665Z,0.76
2019-02-03T21:10:23.408Z,0.74
2019-02-03T21:12:54.272Z,0.69
2019-02-03T21:15:33.538Z,0.66
2019-02-03T21:17:58.361Z,0.64
2019-02-03T21:20:31.045Z,0.61
2019-02-03T21:23:02.000Z,0.62
2019-02-03T21:25:32.447Z,0.64
2019-02-03T21:28:03.023Z,0.61
2019-02-03T21:30:35.975Z,0.55
2019-02-03T21:33:07.433Z,0.53
2019-02-03T21:35:37.868Z,0.57
2019-02-03T21:38:09.988Z,0.66
2019-02-03T21:40:40.452Z,0.70
2019-02-03T21:43:11.393Z,0.75
2019-02-03T21:45:45.045Z,0.80
2019-02-03T21:48:14.362Z,0.88
2019-02-03T21:50:44.868Z,0.96
2019-02-03T21:53:15.366Z,0.97
2019-02-03T21:55:46.204Z,0.96
2019-02-03T21:58:16.702Z,0.95
2019-02-03T22:00:47.138Z,1.00
2019-02-03T22:03:17.904Z,1.03
2019-02-03T22:05:48.382Z,0.94
2019-02-03T22:08:19.584Z,0.94
2019-02-03T22:10:50.074Z,0.87
2019-02-03T22:13:20.542Z,0.88
2019-02-03T22:15:55.910Z,0.81
2019-02-03T22:18:23.328Z,0.71
2019-02-03T22:20:53.746Z,0.83
2019-02-03T22:23:24.229Z,0.79
2019-02-03T22:25:55.043Z,0.82
2019-02-03T22:28:25.487Z,0.74
2019-02-03T22:30:55.959Z,0.75
2019-02-03T22:33:26.394Z,0.73
2019-02-03T22:35:57.221Z,0.75
2019-02-03T22:38:27.657Z,0.68
2019-02-03T22:40:58.101Z,0.66
2019-02-03T22:43:29.493Z,0.68
2019-02-03T22:46:06.863Z,0.63
2019-02-03T22:48:32.114Z,0.62
2019-02-03T22:51:03.346Z,0.61
2019-02-03T22:53:34.106Z,0.63
2019-02-03T22:56:04.784Z,0.64
2019-02-03T22:58:35.648Z,0.59
2019-02-03T23:01:19.835Z,0.57
2019-02-03T23:03:59.009Z,0.57
2019-02-03T23:06:31.161Z,0.59
2019-02-03T23:09:05.360Z,0.60
2019-02-03T23:11:35.996Z,0.54
2019-02-03T23:14:06.880Z,0.56
2019-02-03T23:16:37.319Z,0.52
2019-02-03T23:19:07.785Z,0.57
2019-02-03T23:21:38.227Z,0.58
2019-02-03T23:24:09.214Z,0.60
2019-02-03T23:26:39.817Z,0.65
2019-02-03T23:29:10.527Z,0.61
2019-02-03T23:31:41.341Z,0.63
2019-02-03T23:34:12.062Z,0.62
2019-02-03T23:36:42.895Z,0.64
2019-02-03T23:39:14.407Z,0.53
2019-02-03T23:41:45.007Z,0.57
2019-02-03T23:44:15.529Z,0.52
2019-02-03T23:46:46.342Z,0.51
2019-02-03T23:49:17.906Z,0.50
2019-02-03T23:51:48.340Z,0.53
2019-02-03T23:54:18.786Z,0.49
2019-02-03T23:56:49.610Z,0.49
2019-02-03T23:59:20.432Z,0.48
